sensor_id;sensor_type;location;lat;lon;timestamp;pressure;altitude;pressure_sealevel;temperature;humidity
41684;BME280;27369;52.030;4.586;2023-10-19T00:01:57;45611.88;;;0.01;nan
41684;BME280;27369;52.030;4.586;2023-10-19T00:04:26;45119.00;;;0.01;nan
41684;BME280;27369;52.030;4.586;2023-10-19T00:06:56;44255.34;;;0.01;nan
41684;BME280;27369;52.030;4.586;2023-10-19T00:09:22;43916.63;;;0.01;nan
41684;BME280;27369;52.030;4.586;2023-10-19T00:11:48;43939.50;;;0.01;nan
41684;BME280;27369;52.030;4.586;2023-10-19T00:14:16;44407.94;;;0.01;nan
41684;BME280;27369;52.030;4.586;2023-10-19T00:16:45;44450.69;;;0.01;nan
41684;BME280;27369;52.030;4.586;2023-10-19T00:19:18;44702.44;;;0.01;nan
41684;BME280;27369;52.030;4.586;2023-10-19T00:21:45;44342.34;;;0.01;nan
41684;BME280;27369;52.030;4.586;2023-10-19T00:24:20;44397.28;;;0.01;nan
41684;BME280;27369;52.030;4.586;2023-10-19T00:26:47;44908.44;;;0.01;nan
41684;BME280;27369;52.030;4.586;2023-10-19T00:29:20;46033.03;;;0.01;nan
41684;BME280;27369;52.030;4.586;2023-10-19T00:31:56;46464.84;;;0.01;nan
41684;BME280;27369;52.030;4.586;2023-10-19T00:34:23;46158.16;;;0.01;nan
41684;BME280;27369;52.030;4.586;2023-10-19T00:36:49;46171.88;;;0.01;nan
41684;BME280;27369;52.030;4.586;2023-10-19T00:39:16;46089.47;;;0.01;nan
41684;BME280;27369;52.030;4.586;2023-10-19T00:41:46;46316.84;;;0.01;nan
41684;BME280;27369;52.030;4.586;2023-10-19T00:44:11;46860.06;;;0.01;nan
41684;BME280;27369;52.030;4.586;2023-10-19T00:46:37;47494.81;;;0.01;nan
41684;BME280;27369;52.030;4.586;2023-10-19T00:49:09;47001.97;;;0.01;nan
41684;BME280;27369;52.030;4.586;2023-10-19T00:51:40;46792.91;;;0.01;nan
41684;BME280;27369;52.030;4.586;2023-10-19T00:54:34;46768.50;;;0.01;nan
41684;BME280;27369;52.030;4.586;2023-10-19T00:57:04;47342.25;;;0.01;nan
41684;BME280;27369;52.030;4.586;2023-10-19T00:59:39;48083.81;;;0.01;nan
41684;BME280;27369;52.030;4.586;2023-10-19T01:02:18;48453.09;;;0.01;nan
41684;BME280;27369;52.030;4.586;2023-10-19T01:04:50;48591.94;;;0.01;nan
41684;BME280;27369;52.030;4.586;2023-10-19T01:07:22;48512.59;;;0.01;nan
41684;BME280;27369;52.030;4.586;2023-10-19T01:10:00;48575.16;;;0.01;nan
41684;BME280;27369;52.030;4.586;2023-10-19T01:12:28;48840.66;;;0.01;nan
41684;BME280;27369;52.030;4.586;2023-10-19T01:17:32;49289.28;;;0.01;nan
41684;BME280;27369;52.030;4.586;2023-10-19T01:19:59;49432.72;;;0.01;nan
41684;BME280;27369;52.030;4.586;2023-10-19T01:22:25;49441.88;;;0.01;nan
41684;BME280;27369;52.030;4.586;2023-10-19T01:24:52;49209.94;;;0.01;nan
41684;BME280;27369;52.030;4.586;2023-10-19T01:27:19;49890.47;;;0.01;nan
41684;BME280;27369;52.030;4.586;2023-10-19T01:29:45;49742.47;;;0.01;nan
41684;BME280;27369;52.030;4.586;2023-10-19T01:32:12;49887.41;;;0.01;nan
41684;BME280;27369;52.030;4.586;2023-10-19T01:34:40;49695.16;;;0.01;nan
41684;BME280;27369;52.030;4.586;2023-10-19T01:37:05;50155.97;;;0.01;nan
41684;BME280;27369;52.030;4.586;2023-10-19T01:39:34;49754.66;;;0.01;nan
41684;BME280;27369;52.030;4.586;2023-10-19T01:42:04;49922.50;;;0.01;nan
41684;BME280;27369;52.030;4.586;2023-10-19T01:44:30;49986.59;;;0.01;nan
41684;BME280;27369;52.030;4.586;2023-10-19T01:46:56;49739.41;;;0.01;nan
41684;BME280;27369;52.030;4.586;2023-10-19T01:49:21;49823.34;;;0.01;nan
41684;BME280;27369;52.030;4.586;2023-10-19T01:51:53;49914.88;;;0.01;nan
41684;BME280;27369;52.030;4.586;2023-10-19T01:54:20;49899.63;;;0.01;nan
41684;BME280;27369;52.030;4.586;2023-10-19T01:56:54;49664.63;;;0.01;nan
41684;BME280;27369;52.030;4.586;2023-10-19T01:59:23;49402.19;;;0.01;nan
41684;BME280;27369;52.030;4.586;2023-10-19T02:01:52;49502.91;;;0.01;nan
41684;BME280;27369;52.030;4.586;2023-10-19T02:04:17;49342.69;;;0.01;nan
41684;BME280;27369;52.030;4.586;2023-10-19T02:06:43;49344.19;;;0.01;nan
41684;BME280;27369;52.030;4.586;2023-10-19T02:09:12;49632.59;;;0.01;nan
41684;BME280;27369;52.030;4.586;2023-10-19T02:11:57;49261.81;;;0.01;nan
41684;BME280;27369;52.030;4.586;2023-10-19T02:14:23;49357.94;;;0.01;nan
41684;BME280;27369;52.030;4.586;2023-10-19T02:16:55;48950.53;;;0.01;nan
41684;BME280;27369;52.030;4.586;2023-10-19T02:19:26;49313.69;;;0.01;nan
41684;BME280;27369;52.030;4.586;2023-10-19T02:21:53;49861.47;;;0.01;nan
41684;BME280;27369;52.030;4.586;2023-10-19T02:24:19;49710.41;;;0.01;nan
41684;BME280;27369;52.030;4.586;2023-10-19T02:26:47;49988.13;;;0.01;nan
41684;BME280;27369;52.030;4.586;2023-10-19T02:29:13;50069.00;;;0.01;nan
41684;BME280;27369;52.030;4.586;2023-10-19T02:31:42;50142.25;;;0.01;nan
41684;BME280;27369;52.030;4.586;2023-10-19T02:34:08;50363.50;;;0.01;nan
41684;BME280;27369;52.030;4.586;2023-10-19T02:36:41;50372.66;;;0.01;nan
41684;BME280;27369;52.030;4.586;2023-10-19T02:39:08;50552.72;;;0.01;nan
41684;BME280;27369;52.030;4.586;2023-10-19T02:41:35;50432.16;;;0.01;nan
41684;BME280;27369;52.030;4.586;2023-10-19T02:44:07;50328.41;;;0.01;nan
41684;BME280;27369;52.030;4.586;2023-10-19T02:46:37;50406.22;;;0.01;nan
41684;BME280;27369;52.030;4.586;2023-10-19T02:49:08;50511.50;;;0.01;nan
41684;BME280;27369;52.030;4.586;2023-10-19T02:51:41;50448.94;;;0.01;nan
41684;BME280;27369;52.030;4.586;2023-10-19T02:54:10;50394.00;;;0.01;nan
41684;BME280;27369;52.030;4.586;2023-10-19T02:56:41;50384.88;;;0.01;nan
41684;BME280;27369;52.030;4.586;2023-10-19T02:59:09;50204.81;;;0.01;nan
41684;BME280;27369;52.030;4.586;2023-10-19T03:01:34;50076.63;;;0.01;nan
41684;BME280;27369;52.030;4.586;2023-10-19T03:04:01;49988.13;;;0.01;nan
41684;BME280;27369;52.030;4.586;2023-10-19T03:06:28;50159.03;;;0.01;nan
41684;BME280;27369;52.030;4.586;2023-10-19T03:09:04;50241.44;;;0.01;nan
41684;BME280;27369;52.030;4.586;2023-10-19T03:11:38;50174.28;;;0.01;nan
41684;BME280;27369;52.030;4.586;2023-10-19T03:14:06;49852.31;;;0.01;nan
41684;BME280;27369;52.030;4.586;2023-10-19T03:16:32;49618.88;;;0.01;nan
41684;BME280;27369;52.030;4.586;2023-10-19T03:18:57;49983.56;;;0.01;nan
41684;BME280;27369;52.030;4.586;2023-10-19T03:21:22;49827.91;;;0.01;nan
41684;BME280;27369;52.030;4.586;2023-10-19T03:23:57;49432.72;;;0.01;nan
41684;BME280;27369;52.030;4.586;2023-10-19T03:26:27;49473.91;;;0.01;nan
41684;BME280;27369;52.030;4.586;2023-10-19T03:29:02;49744.00;;;0.01;nan
41684;BME280;27369;52.030;4.586;2023-10-19T03:31:48;49856.91;;;0.01;nan
41684;BME280;27369;52.030;4.586;2023-10-19T03:34:14;49859.97;;;0.01;nan
41684;BME280;27369;52.030;4.586;2023-10-19T03:36:42;50076.63;;;0.01;nan
41684;BME280;27369;52.030;4.586;2023-10-19T03:39:07;50322.31;;;0.01;nan
41684;BME280;27369;52.030;4.586;2023-10-19T03:41:40;49940.81;;;0.01;nan
41684;BME280;27369;52.030;4.586;2023-10-19T03:44:13;49884.38;;;0.01;nan
41684;BME280;27369;52.030;4.586;2023-10-19T03:46:52;50360.44;;;0.01;nan
41684;BME280;27369;52.030;4.586;2023-10-19T03:49:21;50467.25;;;0.01;nan
41684;BME280;27369;52.030;4.586;2023-10-19T03:51:48;50496.25;;;0.01;nan
41684;BME280;27369;52.030;4.586;2023-10-19T03:54:32;50458.09;;;0.01;nan
41684;BME280;27369;52.030;4.586;2023-10-19T03:56:58;50493.19;;;0.01;nan
41684;BME280;27369;52.030;4.586;2023-10-19T03:59:27;50522.19;;;0.01;nan
41684;BME280;27369;52.030;4.586;2023-10-19T04:02:00;50459.63;;;0.01;nan
41684;BME280;27369;52.030;4.586;2023-10-19T04:04:26;50412.31;;;0.01;nan
41684;BME280;27369;52.030;4.586;2023-10-19T04:06:55;50497.78;;;0.01;nan
41684;BME280;27369;52.030;4.586;2023-10-19T04:09:24;50305.50;;;0.01;nan
41684;BME280;27369;52.030;4.586;2023-10-19T04:11:57;50255.16;;;0.01;nan
41684;BME280;27369;52.030;4.586;2023-10-19T04:14:22;50409.28;;;0.01;nan
41684;BME280;27369;52.030;4.586;2023-10-19T04:16:48;50398.59;;;0.01;nan
41684;BME280;27369;52.030;4.586;2023-10-19T04:19:14;50416.91;;;0.01;nan
41684;BME280;27369;52.030;4.586;2023-10-19T04:21:41;50432.16;;;0.01;nan
41684;BME280;27369;52.030;4.586;2023-10-19T04:24:12;50543.56;;;0.01;nan
41684;BME280;27369;52.030;4.586;2023-10-19T04:26:38;50509.97;;;0.01;nan
41684;BME280;27369;52.030;4.586;2023-10-19T04:29:04;50516.09;;;0.01;nan
41684;BME280;27369;52.030;4.586;2023-10-19T04:31:39;50580.19;;;0.01;nan
41684;BME280;27369;52.030;4.586;2023-10-19T04:34:24;50642.75;;;0.01;nan
41684;BME280;27369;52.030;4.586;2023-10-19T04:36:50;50629.00;;;0.01;nan
41684;BME280;27369;52.030;4.586;2023-10-19T04:39:15;50476.41;;;0.01;nan
41684;BME280;27369;52.030;4.586;2023-10-19T04:41:45;50535.94;;;0.01;nan
41684;BME280;27369;52.030;4.586;2023-10-19T04:44:10;50650.38;;;0.01;nan
41684;BME280;27369;52.030;4.586;2023-10-19T04:46:36;50661.03;;;0.01;nan
41684;BME280;27369;52.030;4.586;2023-10-19T04:49:02;50699.19;;;0.01;nan
41684;BME280;27369;52.030;4.586;2023-10-19T04:51:29;50598.47;;;0.01;nan
41684;BME280;27369;52.030;4.586;2023-10-19T04:53:54;50461.16;;;0.01;nan
41684;BME280;27369;52.030;4.586;2023-10-19T04:56:21;50549.66;;;0.01;nan
41684;BME280;27369;52.030;4.586;2023-10-19T04:58:46;50361.97;;;0.01;nan
41684;BME280;27369;52.030;4.586;2023-10-19T05:01:12;50392.50;;;0.01;nan
41684;BME280;27369;52.030;4.586;2023-10-19T05:03:38;50456.56;;;0.01;nan
41684;BME280;27369;52.030;4.586;2023-10-19T05:06:04;50336.03;;;0.01;nan
41684;BME280;27369;52.030;4.586;2023-10-19T05:08:30;50403.16;;;0.01;nan
41684;BME280;27369;52.030;4.586;2023-10-19T05:10:58;50436.75;;;0.01;nan
41684;BME280;27369;52.030;4.586;2023-10-19T05:13:25;50258.22;;;0.01;nan
41684;BME280;27369;52.030;4.586;2023-10-19T05:15:51;50416.91;;;0.01;nan
41684;BME280;27369;52.030;4.586;2023-10-19T05:18:18;50290.25;;;0.01;nan
41684;BME280;27369;52.030;4.586;2023-10-19T05:20:45;50361.97;;;0.01;nan
41684;BME280;27369;52.030;4.586;2023-10-19T05:23:11;50464.22;;;0.01;nan
41684;BME280;27369;52.030;4.586;2023-10-19T05:25:38;50448.94;;;0.01;nan
41684;BME280;27369;52.030;4.586;2023-10-19T05:28:07;50531.34;;;0.01;nan
41684;BME280;27369;52.030;4.586;2023-10-19T05:30:33;50633.59;;;0.01;nan
41684;BME280;27369;52.030;4.586;2023-10-19T05:32:59;50595.44;;;0.01;nan
41684;BME280;27369;52.030;4.586;2023-10-19T05:35:25;50699.19;;;0.01;nan
41684;BME280;27369;52.030;4.586;2023-10-19T05:37:55;50751.06;;;0.01;nan
41684;BME280;27369;52.030;4.586;2023-10-19T05:40:23;50392.50;;;0.01;nan
41684;BME280;27369;52.030;4.586;2023-10-19T05:42:54;59042.03;;;0.01;0.00
41684;BME280;27369;52.030;4.586;2023-10-19T05:45:20;59042.03;;;0.01;0.00
41684;BME280;27369;52.030;4.586;2023-10-19T05:47:45;59042.03;;;0.01;0.00
41684;BME280;27369;52.030;4.586;2023-10-19T05:50:10;50162.09;;;0.01;nan
41684;BME280;27369;52.030;4.586;2023-10-19T05:52:41;50212.44;;;0.01;nan
41684;BME280;27369;52.030;4.586;2023-10-19T05:55:08;50238.38;;;0.01;nan
41684;BME280;27369;52.030;4.586;2023-10-19T05:57:33;50433.69;;;0.01;nan
41684;BME280;27369;52.030;4.586;2023-10-19T06:00:01;50401.66;;;0.01;nan
41684;BME280;27369;52.030;4.586;2023-10-19T06:02:26;50436.75;;;0.01;nan
41684;BME280;27369;52.030;4.586;2023-10-19T06:04:52;50415.38;;;0.01;nan
41684;BME280;27369;52.030;4.586;2023-10-19T06:07:17;50407.75;;;0.01;nan
41684;BME280;27369;52.030;4.586;2023-10-19T06:09:42;50546.59;;;0.01;nan
41684;BME280;27369;52.030;4.586;2023-10-19T06:12:08;50412.31;;;0.01;nan
41684;BME280;27369;52.030;4.586;2023-10-19T06:14:35;50365.03;;;0.01;nan
41684;BME280;27369;52.030;4.586;2023-10-19T06:17:02;50354.34;;;0.01;nan
41684;BME280;27369;52.030;4.586;2023-10-19T06:19:28;50481.00;;;0.01;nan
41684;BME280;27369;52.030;4.586;2023-10-19T06:21:53;50502.34;;;0.01;nan
41684;BME280;27369;52.030;4.586;2023-10-19T06:24:19;50564.91;;;0.01;nan
41684;BME280;27369;52.030;4.586;2023-10-19T06:26:44;50313.16;;;0.01;nan
41684;BME280;27369;52.030;4.586;2023-10-19T06:29:10;50403.16;;;0.01;nan
41684;BME280;27369;52.030;4.586;2023-10-19T06:31:36;50525.25;;;0.01;nan
41684;BME280;27369;52.030;4.586;2023-10-19T06:34:01;50503.88;;;0.01;nan
41684;BME280;27369;52.030;4.586;2023-10-19T06:36:28;50493.19;;;0.01;nan
41684;BME280;27369;52.030;4.586;2023-10-19T06:38:54;50574.06;;;0.01;nan
41684;BME280;27369;52.030;4.586;2023-10-19T06:41:20;50537.44;;;0.01;nan
41684;BME280;27369;52.030;4.586;2023-10-19T06:43:46;50662.56;;;0.01;nan
41684;BME280;27369;52.030;4.586;2023-10-19T06:46:12;50667.16;;;0.01;nan
41684;BME280;27369;52.030;4.586;2023-10-19T06:48:38;50563.38;;;0.01;nan
41684;BME280;27369;52.030;4.586;2023-10-19T06:51:03;50587.81;;;0.01;nan
41684;BME280;27369;52.030;4.586;2023-10-19T06:53:30;50497.78;;;0.01;nan
41684;BME280;27369;52.030;4.586;2023-10-19T06:55:56;50513.03;;;0.01;nan
41684;BME280;27369;52.030;4.586;2023-10-19T06:58:22;50488.63;;;0.01;nan
41684;BME280;27369;52.030;4.586;2023-10-19T07:00:51;50555.75;;;0.01;nan
41684;BME280;27369;52.030;4.586;2023-10-19T07:03:25;50725.13;;;0.01;nan
41684;BME280;27369;52.030;4.586;2023-10-19T07:05:53;50781.59;;;0.01;nan
41684;BME280;27369;52.030;4.586;2023-10-19T07:08:19;50760.22;;;0.01;nan
41684;BME280;27369;52.030;4.586;2023-10-19T07:10:46;50873.16;;;0.01;nan
41684;BME280;27369;52.030;4.586;2023-10-19T07:13:11;50693.09;;;0.01;nan
41684;BME280;27369;52.030;4.586;2023-10-19T07:15:37;50775.50;;;0.01;nan
41684;BME280;27369;52.030;4.586;2023-10-19T07:18:02;50674.78;;;0.01;nan
41684;BME280;27369;52.030;4.586;2023-10-19T07:20:28;50656.47;;;0.01;nan
41684;BME280;27369;52.030;4.586;2023-10-19T07:22:55;50677.84;;;0.01;nan
41684;BME280;27369;52.030;4.586;2023-10-19T07:25:22;50673.25;;;0.01;nan
41684;BME280;27369;52.030;4.586;2023-10-19T07:27:51;50644.25;;;0.01;nan
41684;BME280;27369;52.030;4.586;2023-10-19T07:30:17;50592.38;;;0.01;nan
41684;BME280;27369;52.030;4.586;2023-10-19T07:32:50;50641.22;;;0.01;nan
41684;BME280;27369;52.030;4.586;2023-10-19T07:35:21;50622.91;;;0.01;nan
41684;BME280;27369;52.030;4.586;2023-10-19T07:37:47;50587.81;;;0.01;nan
41684;BME280;27369;52.030;4.586;2023-10-19T07:40:14;50638.16;;;0.01;nan
41684;BME280;27369;52.030;4.586;2023-10-19T07:42:42;50708.34;;;0.01;nan
41684;BME280;27369;52.030;4.586;2023-10-19T07:45:08;50764.81;;;0.01;nan
41684;BME280;27369;52.030;4.586;2023-10-19T07:47:38;50697.66;;;0.01;nan
41684;BME280;27369;52.030;4.586;2023-10-19T07:50:07;50751.06;;;0.01;nan
41684;BME280;27369;52.030;4.586;2023-10-19T07:52:37;50911.28;;;0.01;nan
41684;BME280;27369;52.030;4.586;2023-10-19T07:55:04;50921.97;;;0.01;nan
41684;BME280;27369;52.030;4.586;2023-10-19T07:57:30;50903.66;;;0.01;nan
41684;BME280;27369;52.030;4.586;2023-10-19T07:59:55;50830.41;;;0.01;nan
41684;BME280;27369;52.030;4.586;2023-10-19T08:02:22;50766.34;;;0.01;nan
41684;BME280;27369;52.030;4.586;2023-10-19T08:04:50;50773.97;;;0.01;nan
41684;BME280;27369;52.030;4.586;2023-10-19T08:07:16;50915.88;;;0.01;nan
41684;BME280;27369;52.030;4.586;2023-10-19T08:09:42;50958.59;;;0.01;nan
41684;BME280;27369;52.030;4.586;2023-10-19T08:12:09;50947.91;;;0.01;nan
41684;BME280;27369;52.030;4.586;2023-10-19T08:14:34;50958.59;;;0.01;nan
41684;BME280;27369;52.030;4.586;2023-10-19T08:17:00;50964.69;;;0.01;nan
41684;BME280;27369;52.030;4.586;2023-10-19T08:19:27;50882.31;;;0.01;nan
41684;BME280;27369;52.030;4.586;2023-10-19T08:21:53;50908.25;;;0.01;nan
41684;BME280;27369;52.030;4.586;2023-10-19T08:24:18;50897.56;;;0.01;nan
41684;BME280;27369;52.030;4.586;2023-10-19T08:26:46;50882.31;;;0.01;nan
41684;BME280;27369;52.030;4.586;2023-10-19T08:29:12;50833.47;;;0.01;nan
41684;BME280;27369;52.030;4.586;2023-10-19T08:31:41;50886.88;;;0.01;nan
41684;BME280;27369;52.030;4.586;2023-10-19T08:34:08;50882.31;;;0.01;nan
41684;BME280;27369;52.030;4.586;2023-10-19T08:36:39;50865.50;;;0.01;nan
41684;BME280;27369;52.030;4.586;2023-10-19T08:39:09;50886.88;;;0.01;nan
41684;BME280;27369;52.030;4.586;2023-10-19T08:41:37;50964.69;;;0.01;nan
41684;BME280;27369;52.030;4.586;2023-10-19T08:44:04;51041.00;;;0.01;nan
41684;BME280;27369;52.030;4.586;2023-10-19T08:46:38;50925.03;;;0.01;nan
41684;BME280;27369;52.030;4.586;2023-10-19T08:49:05;50925.03;;;0.01;nan
41684;BME280;27369;52.030;4.586;2023-10-19T08:51:36;51041.00;;;0.01;nan
41684;BME280;27369;52.030;4.586;2023-10-19T08:54:04;51045.56;;;0.01;nan
41684;BME280;27369;52.030;4.586;2023-10-19T08:56:31;50947.91;;;0.01;nan
41684;BME280;27369;52.030;4.586;2023-10-19T08:58:59;51034.88;;;0.01;nan
41684;BME280;27369;52.030;4.586;2023-10-19T09:01:25;51050.16;;;0.01;nan
41684;BME280;27369;52.030;4.586;2023-10-19T09:03:53;51109.66;;;0.01;nan
41684;BME280;27369;52.030;4.586;2023-10-19T09:06:20;51053.19;;;0.01;nan
41684;BME280;27369;52.030;4.586;2023-10-19T09:08:47;51152.38;;;0.01;nan
41684;BME280;27369;52.030;4.586;2023-10-19T09:11:14;51109.66;;;0.01;nan
41684;BME280;27369;52.030;4.586;2023-10-19T09:13:44;51147.81;;;0.01;nan
41684;BME280;27369;52.030;4.586;2023-10-19T09:16:16;51082.19;;;0.01;nan
41684;BME280;27369;52.030;4.586;2023-10-19T09:18:43;51121.88;;;0.01;nan
41684;BME280;27369;52.030;4.586;2023-10-19T09:21:10;51131.03;;;0.01;nan
41684;BME280;27369;52.030;4.586;2023-10-19T09:23:46;51056.25;;;0.01;nan
41684;BME280;27369;52.030;4.586;2023-10-19T09:26:12;51077.63;;;0.01;nan
41684;BME280;27369;52.030;4.586;2023-10-19T09:28:39;51062.34;;;0.01;nan
41684;BME280;27369;52.030;4.586;2023-10-19T09:31:05;51065.41;;;0.01;nan
41684;BME280;27369;52.030;4.586;2023-10-19T09:33:34;51037.94;;;0.01;nan
41684;BME280;27369;52.030;4.586;2023-10-19T09:36:01;51015.06;;;0.01;nan
41684;BME280;27369;52.030;4.586;2023-10-19T09:38:29;51053.19;;;0.01;nan
41684;BME280;27369;52.030;4.586;2023-10-19T09:40:55;51063.88;;;0.01;nan
41684;BME280;27369;52.030;4.586;2023-10-19T09:43:29;51095.94;;;0.01;nan
41684;BME280;27369;52.030;4.586;2023-10-19T09:45:57;51047.09;;;0.01;nan
41684;BME280;27369;52.030;4.586;2023-10-19T09:48:25;51039.47;;;0.01;nan
41684;BME280;27369;52.030;4.586;2023-10-19T09:50:54;51025.72;;;0.01;nan
41684;BME280;27369;52.030;4.586;2023-10-19T09:53:27;51089.81;;;0.01;nan
41684;BME280;27369;52.030;4.586;2023-10-19T09:55:57;51091.34;;;0.01;nan
41684;BME280;27369;52.030;4.586;2023-10-19T09:58:35;51012.00;;;0.01;nan
41684;BME280;27369;52.030;4.586;2023-10-19T10:01:03;51028.78;;;0.01;nan
41684;BME280;27369;52.030;4.586;2023-10-19T10:03:45;51044.03;;;0.01;nan
41684;BME280;27369;52.030;4.586;2023-10-19T10:06:14;51086.78;;;0.01;nan
41684;BME280;27369;52.030;4.586;2023-10-19T10:08:44;51062.34;;;0.01;nan
41684;BME280;27369;52.030;4.586;2023-10-19T10:11:25;51068.47;;;0.01;nan
41684;BME280;27369;52.030;4.586;2023-10-19T10:13:52;51160.00;;;0.01;nan
41684;BME280;27369;52.030;4.586;2023-10-19T10:16:21;51053.19;;;0.01;nan
41684;BME280;27369;52.030;4.586;2023-10-19T10:18:48;51028.78;;;0.01;nan
41684;BME280;27369;52.030;4.586;2023-10-19T10:21:22;51083.72;;;0.01;nan
41684;BME280;27369;52.030;4.586;2023-10-19T10:23:56;51068.47;;;0.01;nan
41684;BME280;27369;52.030;4.586;2023-10-19T10:26:25;51059.31;;;0.01;nan
41684;BME280;27369;52.030;4.586;2023-10-19T10:29:23;51027.25;;;0.01;nan
41684;BME280;27369;52.030;4.586;2023-10-19T10:31:53;51184.44;;;0.01;nan
41684;BME280;27369;52.030;4.586;2023-10-19T10:39:30;50992.16;;;0.01;nan
41684;BME280;27369;52.030;4.586;2023-10-19T10:41:59;50979.97;;;0.01;nan
41684;BME280;27369;52.030;4.586;2023-10-19T10:44:45;50979.97;;;0.01;nan
41684;BME280;27369;52.030;4.586;2023-10-19T10:47:18;51010.47;;;0.01;nan
41684;BME280;27369;52.030;4.586;2023-10-19T10:49:54;51019.63;;;0.01;nan
41684;BME280;27369;52.030;4.586;2023-10-19T10:52:31;51056.25;;;0.01;nan
41684;BME280;27369;52.030;4.586;2023-10-19T10:54:57;51041.00;;;0.01;nan
41684;BME280;27369;52.030;4.586;2023-10-19T10:57:23;50979.97;;;0.01;nan
41684;BME280;27369;52.030;4.586;2023-10-19T11:00:02;51001.31;;;0.01;nan
41684;BME280;27369;52.030;4.586;2023-10-19T11:02:42;50943.34;;;0.01;nan
41684;BME280;27369;52.030;4.586;2023-10-19T11:05:15;50905.19;;;0.01;nan
41684;BME280;27369;52.030;4.586;2023-10-19T11:10:29;50947.91;;;0.01;nan
41684;BME280;27369;52.030;4.586;2023-10-19T11:13:06;50903.66;;;0.01;nan
41684;BME280;27369;52.030;4.586;2023-10-19T11:15:36;50943.34;;;0.01;nan
41684;BME280;27369;52.030;4.586;2023-10-19T11:18:05;50955.53;;;0.01;nan
41684;BME280;27369;52.030;4.586;2023-10-19T11:20:33;50952.50;;;0.01;nan
41684;BME280;27369;52.030;4.586;2023-10-19T11:22:58;50979.97;;;0.01;nan
41684;BME280;27369;52.030;4.586;2023-10-19T11:25:28;50999.78;;;0.01;nan
41684;BME280;27369;52.030;4.586;2023-10-19T11:27:59;50935.72;;;0.01;nan
41684;BME280;27369;52.030;4.586;2023-10-19T11:30:28;51021.16;;;0.01;nan
41684;BME280;27369;52.030;4.586;2023-10-19T11:32:54;50920.44;;;0.01;nan
41684;BME280;27369;52.030;4.586;2023-10-19T11:35:26;50979.97;;;0.01;nan
41684;BME280;27369;52.030;4.586;2023-10-19T11:37:55;50920.44;;;0.01;nan
41684;BME280;27369;52.030;4.586;2023-10-19T11:40:21;50848.72;;;0.01;nan
41684;BME280;27369;52.030;4.586;2023-10-19T11:42:48;50906.72;;;0.01;nan
41684;BME280;27369;52.030;4.586;2023-10-19T11:45:14;50909.78;;;0.01;nan
41684;BME280;27369;52.030;4.586;2023-10-19T11:47:42;50929.59;;;0.01;nan
41684;BME280;27369;52.030;4.586;2023-10-19T11:50:08;50934.19;;;0.01;nan
41684;BME280;27369;52.030;4.586;2023-10-19T11:52:33;50931.13;;;0.01;nan
41684;BME280;27369;52.030;4.586;2023-10-19T11:54:59;50912.81;;;0.01;nan
41684;BME280;27369;52.030;4.586;2023-10-19T11:57:24;50934.19;;;0.01;nan
41684;BME280;27369;52.030;4.586;2023-10-19T11:59:50;50908.25;;;0.01;nan
41684;BME280;27369;52.030;4.586;2023-10-19T12:02:19;50717.50;;;0.01;nan
41684;BME280;27369;52.030;4.586;2023-10-19T12:04:44;50717.50;;;0.01;nan
41684;BME280;27369;52.030;4.586;2023-10-19T12:07:11;50839.56;;;0.01;nan
41684;BME280;27369;52.030;4.586;2023-10-19T12:09:36;50763.28;;;0.01;nan
41684;BME280;27369;52.030;4.586;2023-10-19T12:12:02;50830.41;;;0.01;nan
41684;BME280;27369;52.030;4.586;2023-10-19T12:14:31;50815.16;;;0.01;nan
41684;BME280;27369;52.030;4.586;2023-10-19T12:16:59;50783.13;;;0.01;nan
41684;BME280;27369;52.030;4.586;2023-10-19T12:19:27;50819.75;;;0.01;nan
41684;BME280;27369;52.030;4.586;2023-10-19T12:21:54;50819.75;;;0.01;nan
41684;BME280;27369;52.030;4.586;2023-10-19T12:24:19;50798.38;;;0.01;nan
41684;BME280;27369;52.030;4.586;2023-10-19T12:26:45;50752.59;;;0.01;nan
41684;BME280;27369;52.030;4.586;2023-10-19T12:29:11;50760.22;;;0.01;nan
41684;BME280;27369;52.030;4.586;2023-10-19T12:31:39;50787.69;;;0.01;nan
41684;BME280;27369;52.030;4.586;2023-10-19T12:34:05;50700.72;;;0.01;nan
41684;BME280;27369;52.030;4.586;2023-10-19T12:36:31;50746.50;;;0.01;nan
41684;BME280;27369;52.030;4.586;2023-10-19T12:38:57;50751.06;;;0.01;nan
41684;BME280;27369;52.030;4.586;2023-10-19T12:41:23;50651.88;;;0.01;nan
41684;BME280;27369;52.030;4.586;2023-10-19T12:43:50;50656.47;;;0.01;nan
41684;BME280;27369;52.030;4.586;2023-10-19T12:46:17;50720.56;;;0.01;nan
41684;BME280;27369;52.030;4.586;2023-10-19T12:48:44;50677.84;;;0.01;nan
41684;BME280;27369;52.030;4.586;2023-10-19T12:51:12;50540.50;;;0.01;nan
41684;BME280;27369;52.030;4.586;2023-10-19T12:53:38;50540.50;;;0.01;nan
41684;BME280;27369;52.030;4.586;2023-10-19T12:56:05;50569.50;;;0.01;nan
41684;BME280;27369;52.030;4.586;2023-10-19T12:58:31;50509.97;;;0.01;nan
41684;BME280;27369;52.030;4.586;2023-10-19T13:00:57;50404.69;;;0.01;nan
41684;BME280;27369;52.030;4.586;2023-10-19T13:03:24;50273.47;;;0.01;nan
41684;BME280;27369;52.030;4.586;2023-10-19T13:05:52;50213.97;;;0.01;nan
41684;BME280;27369;52.030;4.586;2023-10-19T13:08:19;50110.19;;;0.01;nan
41684;BME280;27369;52.030;4.586;2023-10-19T13:10:47;50055.28;;;0.01;nan
41684;BME280;27369;52.030;4.586;2023-10-19T13:13:14;49998.81;;;0.01;nan
41684;BME280;27369;52.030;4.586;2023-10-19T13:15:45;49876.75;;;0.01;nan
41684;BME280;27369;52.030;4.586;2023-10-19T13:18:11;49760.78;;;0.01;nan
41684;BME280;27369;52.030;4.586;2023-10-19T13:20:38;49678.38;;;0.01;nan
41684;BME280;27369;52.030;4.586;2023-10-19T13:23:08;49667.69;;;0.01;nan
41684;BME280;27369;52.030;4.586;2023-10-19T13:25:37;49634.13;;;0.01;nan
41684;BME280;27369;52.030;4.586;2023-10-19T13:28:16;49515.09;;;0.01;nan
41684;BME280;27369;52.030;4.586;2023-10-19T13:30:52;49429.66;;;0.01;nan
41684;BME280;27369;52.030;4.586;2023-10-19T13:33:21;49403.72;;;0.01;nan
41684;BME280;27369;52.030;4.586;2023-10-19T13:35:47;49093.97;;;0.01;nan
41684;BME280;27369;52.030;4.586;2023-10-19T13:38:16;49064.97;;;0.01;nan
41684;BME280;27369;52.030;4.586;2023-10-19T13:40:43;48949.00;;;0.01;nan
41684;BME280;27369;52.030;4.586;2023-10-19T13:43:11;49057.34;;;0.01;nan
41684;BME280;27369;52.030;4.586;2023-10-19T13:45:40;49020.72;;;0.01;nan
41684;BME280;27369;52.030;4.586;2023-10-19T13:48:07;49034.44;;;0.01;nan
41684;BME280;27369;52.030;4.586;2023-10-19T13:50:33;49039.03;;;0.01;nan